Waterford Township, MI (48327)

3:17 PM EDT on July 26, 2016 (GMT -0400)
orchard crest north | | Change Station

Elev 965 ft 42.61 °N, 83.40 °W | Updated 2 seconds ago

Mostly Cloudy
Mostly Cloudy
87.3 °F
Feels Like 87 °F
N
2.7
Wind Variable Wind from NW

Today
High -- | Low -- °F
--% Chance of Precip.
Yesterday
High -- | Low -- °F
Precip. -- in
Pressure 30.01 in
Visibility 10.0 miles
Clouds Mostly Cloudy 5500 ft
Heat Index 87 °F
Dew Point 61 °F
Humidity 41%
Rainfall 0.00 in
Snow Depth Not available.
6:19 AM 8:59 PM
Waning Gibbous, 52% visible
METAR KPTK 261853Z 27005KT 10SM BKN055 29/14 A3003 RMK AO2 SLP162 T02940144
Pressure 30.01 in
Visibility 10.0 miles
Clouds Mostly Cloudy 5500 ft
Heat Index 87 °F
Dew Point 61 °F
Humidity 41%
Rainfall 0.00 in
Snow Depth Not available.
6:19 AM 8:59 PM
Waning Gibbous, 52% visible
METAR KPTK 261853Z 27005KT 10SM BKN055 29/14 A3003 RMK AO2 SLP162 T02940144

10-Day Weather Forecast

Almanac

Astronomy

Jul. 26, 2016 Rise Set
Actual Time
Civil Twilight
Nautical Twilight
Astronomical Twilight
Moon
Length of Visible Light
Length of Day
Tomorrow will be .
, % of the Moon is Illuminated

Today's Extremes

State Highs State Lows

Community

WunderPhotos

Upload Photos

1,927,663 photos uploaded!

WunderBlog® & News

Nearby

Air Quality

  Air Quality AQ Index Pollutant
Not available.

Snow Depth

Station Depth Elevation

Earthquake Activity

City Distance Mag. Time & Date
Minimum magnitude displayed is 2.5.

Coastal Water Temperatures

Place Temperature

Stations

Nearby Weather Stations

Station Location Temp. Windchill Dew Point Humidity Wind Precip. Elev Updated Type
                   

Watches & Warnings

There are currently no watches in effect.